FIND THE ANSWERS

Snow near sanjose?

Answer this question

Do you know the correct answer? Make money answering questions! Join now.
  • Snow near sanjose?


Answers

Snow Depth: Not available. Sun & Moon. 6:29 AM 7:51 PM. Waning Gibbous, 87% visible. METAR KSJC 211353Z 00000KT 9SM FEW008 OVC012 17/13 A2994 RMK AO2 ...
Read more
Positive: 22 %
Find right answers right now! Snow near sanjose? More questions about Science & Mathematics
Read more
Positive: 19 %

More resources

List of ski resorts within driving distance from the Bay Area: snowboarding/skiing mountains near San Francisco - Heavenly, Squaw, Northstar size rankings
Read more
Positive: 22 %
SAN JOSE, CALIFORNIA (CA) 95112 local weather forecast and current conditions, radar, satellite loops, severe weather warnings, long range forecast.
Read more
Positive: 17 %
NOAA National Weather Service National Weather Service. Toggle navigation. HOME; FORECAST . ... with a high near 81. ... Snow Cover ; Satellite ;
Read more
Positive: 3 %
Open source travel guide to San Jose, featuring up-to-date information on attractions, hotels, restaurants, nightlife, travel tips and more. Free and ...
Read more
Positive: 10 %

Show more results

Anonymous16884
Login to your account
Create new account